Time;durP1;ratioP1;P1;durP2;ratioP2;P2;SDS_P1;SDS_P2;PMS_P1;PMS_P2;Temp;Humidity;BMP_temperature;BMP_pressure;BME280_temperature;BME280_humidity;BME280_pressure;Samples;Min_cycle;Max_cycle;Signal;HPM_P1;HPM_P2
2021/01/04 00:01:32;;;;;;;16.45;9.32;;;;;;;2.34;100.00;101544.16;4953818;28;20118;-77
2021/01/04 00:04:24;;;;;;;17.00;8.73;;;;;;;2.39;100.00;101546.53;4953972;28;20063;-77
2021/01/04 00:07:01;;;;;;;13.95;8.57;;;;;;;2.36;100.00;101540.56;4953338;28;20032;-77
2021/01/04 00:09:46;;;;;;;15.48;8.85;;;;;;;2.35;100.00;101529.13;4953781;28;20037;-77
2021/01/04 00:12:20;;;;;;;19.88;9.93;;;;;;;2.36;100.00;101536.16;4954158;28;20039;-77
2021/01/04 00:14:54;;;;;;;16.17;8.98;;;;;;;2.34;100.00;101522.97;4953507;28;20038;-77
2021/01/04 00:17:36;;;;;;;16.25;9.00;;;;;;;2.37;100.00;101529.91;4953637;28;20033;-77
2021/01/04 00:20:31;;;;;;;16.42;8.68;;;;;;;2.39;100.00;101529.78;4947576;28;20039;-77
2021/01/04 00:23:11;;;;;;;17.92;9.50;;;;;;;2.36;100.00;101524.69;4949723;29;20035;-77
2021/01/04 00:25:36;;;;;;;14.90;8.57;;;;;;;2.38;100.00;101528.94;4953327;28;20620;-77
2021/01/04 00:28:07;;;;;;;18.58;9.30;;;;;;;2.38;100.00;101515.72;4953562;28;20039;-77
2021/01/04 00:30:40;;;;;;;18.20;9.98;;;;;;;2.36;100.00;101519.38;4953182;28;20055;-76
2021/01/04 00:33:15;;;;;;;18.00;9.30;;;;;;;2.33;100.00;101516.00;4953314;28;20110;-77
2021/01/04 00:35:47;;;;;;;19.35;10.15;;;;;;;2.30;100.00;101520.63;4952962;28;20035;-78
2021/01/04 00:38:18;;;;;;;19.90;9.27;;;;;;;2.30;100.00;101517.97;4952930;28;20039;-77
2021/01/04 00:40:55;;;;;;;16.58;9.68;;;;;;;2.28;100.00;101520.72;4952618;28;20038;-77
2021/01/04 00:43:32;;;;;;;24.88;10.65;;;;;;;2.31;100.00;101511.75;4953410;28;20047;-77
2021/01/04 00:45:59;;;;;;;16.08;9.63;;;;;;;2.28;100.00;101512.78;4952997;28;20082;-77
2021/01/04 00:48:36;;;;;;;21.58;9.27;;;;;;;2.27;100.00;101515.53;4953064;28;20031;-76
2021/01/04 00:51:08;;;;;;;18.38;10.45;;;;;;;2.27;100.00;101511.09;4952667;28;20031;-77
2021/01/04 00:53:38;;;;;;;17.90;8.98;;;;;;;2.28;100.00;101510.13;4953252;28;20046;-77
2021/01/04 00:56:24;;;;;;;17.63;9.77;;;;;;;2.27;100.00;101508.44;4953047;28;20130;-77
2021/01/04 00:59:09;;;;;;;20.33;9.63;;;;;;;2.27;100.00;101508.44;4952856;28;20498;-77
2021/01/04 01:02:01;;;;;;;19.23;10.20;;;;;;;2.28;100.00;101506.66;4952994;28;20118;-76
2021/01/04 01:04:41;;;;;;;19.02;10.82;;;;;;;2.27;100.00;101499.66;4943245;29;20031;-77
2021/01/04 01:07:18;;;;;;;16.85;9.68;;;;;;;2.27;100.00;101507.59;4952318;28;20039;-77
2021/01/04 01:09:49;;;;;;;19.17;10.50;;;;;;;2.28;100.00;101506.66;4952524;28;20035;-79
2021/01/04 01:12:19;;;;;;;19.65;10.50;;;;;;;2.29;100.00;101503.03;4952659;29;20055;-76
2021/01/04 01:14:56;;;;;;;19.55;11.18;;;;;;;2.28;100.00;101512.78;4952965;28;20114;-77
2021/01/04 01:17:57;;;;;;;17.85;9.50;;;;;;;2.28;100.00;101507.50;4952303;29;20031;-77
2021/01/04 01:20:23;;;;;;;20.08;10.85;;;;;;;2.29;100.00;101509.19;4944599;28;20107;-76
2021/01/04 01:22:49;;;;;;;21.85;10.18;;;;;;;2.31;100.00;101515.25;4946592;29;20110;-76
2021/01/04 01:25:19;;;;;;;17.52;9.95;;;;;;;2.34;100.00;101512.41;4952719;28;20036;-76
2021/01/04 01:28:02;;;;;;;19.42;10.07;;;;;;;2.33;100.00;101525.75;4952240;28;20493;-77
2021/01/04 01:30:49;;;;;;;17.25;9.60;;;;;;;2.33;100.00;101507.22;4952403;28;20046;-77
2021/01/04 01:33:21;;;;;;;18.98;10.48;;;;;;;2.33;100.00;101518.66;4952326;29;20090;-77
2021/01/04 01:36:05;;;;;;;19.02;10.73;;;;;;;2.33;100.00;101515.16;4952193;28;20035;-76
2021/01/04 01:38:48;;;;;;;19.13;10.18;;;;;;;2.33;100.00;101513.34;4952356;28;20489;-77
2021/01/04 01:41:45;;;;;;;18.10;10.05;;;;;;;2.30;100.00;101518.81;4951932;28;20505;-76
2021/01/04 01:44:11;;;;;;;22.67;10.40;;;;;;;2.33;100.00;101521.28;4952348;28;20046;-77
2021/01/04 01:46:51;;;;;;;18.88;10.15;;;;;;;2.33;100.00;101510.69;4951910;28;20141;-77
2021/01/04 01:49:31;;;;;;;21.10;10.13;;;;;;;2.34;100.00;101515.03;4952319;28;20024;-77
2021/01/04 01:52:21;;;;;;;15.90;9.00;;;;;;;2.31;100.00;101523.19;4952003;28;20094;-77
2021/01/04 01:54:54;;;;;;;18.00;10.10;;;;;;;2.33;100.00;101516.00;4952456;28;20035;-77
2021/01/04 01:57:26;;;;;;;18.60;10.35;;;;;;;2.36;100.00;101508.78;4951944;28;20058;-76
2021/01/04 02:00:13;;;;;;;18.60;9.75;;;;;;;2.32;100.00;101510.81;4952628;28;20505;-77
2021/01/04 02:02:54;;;;;;;17.33;9.48;;;;;;;2.31;100.00;101511.75;4941534;29;20035;-77
2021/01/04 02:05:54;;;;;;;21.00;10.27;;;;;;;2.31;100.00;101512.59;4952525;28;20066;-76
2021/01/04 02:08:33;;;;;;;18.83;9.93;;;;;;;2.28;100.00;101504.84;4952791;28;20058;-77
2021/01/04 02:11:05;;;;;;;21.02;10.15;;;;;;;2.26;100.00;101508.53;4952612;28;20031;-76
2021/01/04 02:13:42;;;;;;;20.95;10.25;;;;;;;2.23;100.00;101509.59;4952875;28;20031;-77
2021/01/04 02:16:12;;;;;;;21.35;10.32;;;;;;;2.20;100.00;101499.16;4952356;28;20397;-77
2021/01/04 02:19:02;;;;;;;19.42;10.20;;;;;;;2.09;100.00;101499.00;4952399;28;20746;-77
2021/01/04 02:21:38;;;;;;;19.90;10.90;;;;;;;2.01;100.00;101503.94;4952228;28;20081;-76
2021/01/04 02:24:12;;;;;;;24.23;11.32;;;;;;;2.00;100.00;101505.72;4952463;28;20042;-77
2021/01/04 02:26:50;;;;;;;20.48;10.90;;;;;;;1.97;100.00;101503.28;4951926;28;20141;-77
2021/01/04 02:29:17;;;;;;;21.80;11.52;;;;;;;1.95;100.00;101501.66;4952307;28;20027;-77
2021/01/04 02:31:49;;;;;;;23.33;11.65;;;;;;;1.94;100.00;101499.94;4952128;28;20031;-77
2021/01/04 02:34:20;;;;;;;23.30;11.00;;;;;;;1.96;100.00;101506.88;4952155;28;20070;-77
2021/01/04 02:36:50;;;;;;;22.30;11.75;;;;;;;1.92;100.00;101501.84;4951927;28;20086;-78
2021/01/04 02:39:23;;;;;;;27.23;11.88;;;;;;;1.93;100.00;101495.63;4950683;29;20507;-77
2021/01/04 02:41:49;;;;;;;23.35;11.82;;;;;;;1.90;100.00;101498.44;4951926;29;20171;-78
2021/01/04 02:44:15;;;;;;;22.08;11.43;;;;;;;1.89;100.00;101497.59;4955334;28;20052;-77
2021/01/04 02:46:47;;;;;;;24.25;11.43;;;;;;;1.87;100.00;101499.50;4955278;29;20035;-78
2021/01/04 02:49:23;;;;;;;24.40;11.93;;;;;;;1.87;100.00;101493.34;4954512;29;20038;-77
2021/01/04 02:52:01;;;;;;;23.20;12.73;;;;;;;1.84;100.00;101494.38;4955258;28;20779;-77
2021/01/04 02:54:33;;;;;;;20.08;10.98;;;;;;;1.81;100.00;101484.00;4955641;28;20495;-78
2021/01/04 02:57:14;;;;;;;24.92;12.55;;;;;;;1.77;100.00;101493.91;4954838;28;20150;-78
2021/01/04 02:59:50;;;;;;;27.25;12.82;;;;;;;1.75;100.00;101479.06;4955206;28;20023;-77
2021/01/04 03:02:38;;;;;;;25.77;13.27;;;;;;;1.70;100.00;101479.34;4968223;28;20038;-78
2021/01/04 03:05:07;;;;;;;22.20;11.48;;;;;;;1.69;100.00;101492.66;4955226;28;20346;-76
2021/01/04 03:07:33;;;;;;;26.35;12.45;;;;;;;1.68;100.00;101485.69;4954569;28;20035;-76
2021/01/04 03:10:09;;;;;;;26.27;12.55;;;;;;;1.67;100.00;101481.34;4955076;28;20035;-76
2021/01/04 03:12:35;;;;;;;;;;;;;;;1.62;100.00;101483.41;4955092;28;20409;-76
2021/01/04 03:15:08;;;;;;;25.83;12.52;;;;;;;1.63;100.00;101485.97;4954802;28;19981;-76
2021/01/04 03:17:39;;;;;;;25.33;12.90;;;;;;;1.63;100.00;101478.03;4954681;28;20054;-79
2021/01/04 03:20:10;;;;;;;25.52;12.18;;;;;;;1.62;100.00;101478.97;4954728;28;20020;-77
2021/01/04 03:22:37;;;;;;;26.17;12.85;;;;;;;1.62;100.00;101480.78;4954803;28;20042;-77
2021/01/04 03:25:16;;;;;;;26.98;12.45;;;;;;;1.63;100.00;101479.81;4954521;28;20035;-76
2021/01/04 03:27:42;;;;;;;26.05;13.52;;;;;;;1.64;100.00;101486.81;4954447;28;20046;-77
2021/01/04 03:30:10;;;;;;;27.80;12.77;;;;;;;1.65;100.00;101492.00;4954809;28;20062;-76
2021/01/04 03:32:37;;;;;;;26.73;13.13;;;;;;;1.61;100.00;101472.00;4954438;28;20039;-76
2021/01/04 03:35:03;;;;;;;25.60;12.82;;;;;;;1.66;100.00;101484.94;4954683;28;20412;-77
2021/01/04 03:37:28;;;;;;;27.92;13.32;;;;;;;1.64;100.00;101474.44;4954114;28;20465;-77
2021/01/04 03:39:54;;;;;;;25.52;12.38;;;;;;;1.64;100.00;101479.72;4953242;28;20106;-78
2021/01/04 03:42:20;;;;;;;27.38;12.90;;;;;;;1.62;100.00;101478.13;4953813;29;20478;-77
2021/01/04 03:44:45;;;;;;;26.23;13.25;;;;;;;1.63;100.00;101478.03;4954317;28;20395;-77
2021/01/04 03:47:11;;;;;;;28.83;13.30;;;;;;;1.61;100.00;101487.84;4954186;28;20078;-77
2021/01/04 03:49:36;;;;;;;26.40;12.85;;;;;;;1.59;100.00;101475.66;4954297;28;20034;-77
2021/01/04 03:52:03;;;;;;;24.17;12.35;;;;;;;1.57;100.00;101481.06;4954417;28;20436;-77
2021/01/04 03:54:29;;;;;;;27.27;13.80;;;;;;;1.59;100.00;101475.66;4953294;28;20027;-78
2021/01/04 03:56:54;;;;;;;26.63;12.98;;;;;;;1.56;100.00;101482.00;4953932;28;20081;-77
2021/01/04 03:59:21;;;;;;;25.77;12.80;;;;;;;1.56;100.00;101476.72;4953973;28;20130;-77
2021/01/04 04:01:50;;;;;;;27.73;13.43;;;;;;;1.53;100.00;101472.44;4954205;28;20066;-77
2021/01/04 04:04:17;;;;;;;28.65;13.38;;;;;;;1.48;100.00;101478.94;4953963;28;20039;-77
2021/01/04 04:06:43;;;;;;;25.67;12.80;;;;;;;1.49;100.00;101480.66;4953255;29;20038;-78
2021/01/04 04:09:10;;;;;;;25.95;12.38;;;;;;;1.47;100.00;101483.41;4953842;28;20410;-78
2021/01/04 04:11:35;;;;;;;27.00;11.95;;;;;;;1.46;100.00;101484.34;4954052;29;20043;-77
2021/01/04 04:14:01;;;;;;;25.00;11.63;;;;;;;1.46;100.00;101473.78;4953781;28;20035;-77
2021/01/04 04:16:27;;;;;;;27.27;11.75;;;;;;;1.45;100.00;101484.41;4953704;28;20034;-78
2021/01/04 04:18:52;;;;;;;28.55;13.48;;;;;;;1.43;100.00;101484.50;4953557;28;20063;-77
2021/01/04 04:21:18;;;;;;;29.02;13.48;;;;;;;1.43;100.00;101487.16;4953456;28;20031;-77
2021/01/04 04:23:43;;;;;;;25.35;12.77;;;;;;;1.44;100.00;101490.66;4953680;29;20037;-77
2021/01/04 04:26:17;;;;;;;30.52;13.57;;;;;;;1.45;100.00;101479.13;4953667;28;20023;-77
2021/01/04 04:28:42;;;;;;;25.25;12.45;;;;;;;1.44;100.00;101480.91;4953540;28;20049;-77
2021/01/04 04:31:08;;;;;;;27.88;13.65;;;;;;;1.44;100.00;101480.06;4953937;28;20478;-77
2021/01/04 04:33:33;;;;;;;28.33;13.52;;;;;;;1.43;100.00;101487.16;4953311;29;20031;-77
2021/01/04 04:35:59;;;;;;;30.95;13.85;;;;;;;1.39;100.00;101492.72;4953098;28;20031;-77
2021/01/04 04:38:24;;;;;;;26.77;13.45;;;;;;;1.38;100.00;101483.09;4953151;28;20046;-77
2021/01/04 04:40:50;;;;;;;24.98;12.50;;;;;;;1.38;100.00;101483.09;4953211;28;20102;-77
2021/01/04 04:43:25;;;;;;;26.45;12.85;;;;;;;1.32;100.00;101478.19;4953294;28;20427;-77
2021/01/04 04:45:50;;;;;;;30.02;14.15;;;;;;;1.33;100.00;101485.16;4953456;28;20046;-77
2021/01/04 04:48:40;;;;;;;29.92;12.88;;;;;;;1.34;100.00;101481.56;4952861;29;20046;-77
2021/01/04 04:51:21;;;;;;;30.00;13.63;;;;;;;1.35;100.00;101480.63;4941097;29;20489;-77
2021/01/04 04:54:21;;;;;;;27.23;12.90;;;;;;;1.32;100.00;101475.53;4953226;28;20083;-77
2021/01/04 04:56:53;;;;;;;27.75;13.23;;;;;;;1.32;100.00;101470.25;4952654;29;20031;-77
2021/01/04 04:59:34;;;;;;;27.08;12.98;;;;;;;1.31;100.00;101471.19;4968048;28;20043;-77
2021/01/04 05:02:48;;;;;;;28.10;13.02;;;;;;;1.26;100.00;101471.47;4953317;28;20612;-77
2021/01/04 05:05:21;;;;;;;31.15;12.60;;;;;;;1.29;100.00;101473.91;4952204;28;20035;-78
2021/01/04 05:07:56;;;;;;;29.33;14.02;;;;;;;1.30;100.00;101472.97;4952921;28;20377;-77
2021/01/04 05:10:30;;;;;;;30.00;14.68;;;;;;;1.27;100.00;101474.00;4952938;28;20023;-77
2021/01/04 05:12:59;;;;;;;28.00;13.23;;;;;;;1.27;100.00;101466.09;4953086;28;20034;-77
2021/01/04 05:15:36;;;;;;;30.52;14.93;;;;;;;1.30;100.00;101472.97;4952679;28;20042;-77
2021/01/04 05:18:17;;;;;;;30.88;14.23;;;;;;;1.31;100.00;101473.84;4952720;28;20031;-77
2021/01/04 05:21:02;;;;;;;32.28;13.52;;;;;;;1.34;100.00;101471.00;4952524;28;20042;-77
2021/01/04 05:23:52;;;;;;;33.00;14.52;;;;;;;1.31;100.00;101476.47;4939975;29;20035;-77
2021/01/04 05:26:24;;;;;;;35.95;15.70;;;;;;;1.32;100.00;101476.38;4952527;28;20058;-76
2021/01/04 05:29:10;;;;;;;28.95;13.70;;;;;;;1.35;100.00;101476.19;4952644;28;20031;-76
2021/01/04 05:31:44;;;;;;;32.45;14.75;;;;;;;1.39;100.00;101475.06;4953039;28;20039;-76
2021/01/04 05:34:26;;;;;;;33.58;13.05;;;;;;;1.37;100.00;101486.69;4952289;28;20098;-77
2021/01/04 05:37:13;;;;;;;30.10;13.32;;;;;;;1.37;100.00;101487.53;4952742;28;20027;-77
2021/01/04 05:39:57;;;;;;;28.67;13.60;;;;;;;1.40;100.00;101494.41;4952174;28;20046;-77
2021/01/04 05:42:39;;;;;;;30.65;13.57;;;;;;;1.40;100.00;101486.47;4952839;29;20499;-77
2021/01/04 05:45:05;;;;;;;33.42;14.88;;;;;;;1.39;100.00;101492.72;4953295;28;20039;-77
2021/01/04 05:47:40;;;;;;;34.05;14.68;;;;;;;1.39;100.00;101492.72;4953510;28;20042;-78
2021/01/04 05:50:14;;;;;;;30.98;14.07;;;;;;;1.38;100.00;101499.81;4953581;29;20098;-77
2021/01/04 05:52:40;;;;;;;33.60;14.48;;;;;;;1.43;100.00;101499.53;4953927;28;20027;-77
2021/01/04 05:55:06;;;;;;;32.13;13.90;;;;;;;1.44;100.00;101501.22;4953190;28;20049;-78
2021/01/04 05:57:43;;;;;;;30.83;14.35;;;;;;;1.44;100.00;101512.66;4952512;28;20516;-77
2021/01/04 06:00:09;;;;;;;30.38;14.88;;;;;;;1.44;100.00;101511.81;4952533;28;20055;-77
2021/01/04 06:02:35;;;;;;;31.40;14.32;;;;;;;1.43;100.00;101502.19;4952844;28;20035;-77
2021/01/04 06:05:12;;;;;;;31.23;14.75;;;;;;;1.46;100.00;101508.13;4952242;28;20034;-77
2021/01/04 06:07:41;;;;;;;29.55;13.77;;;;;;;1.47;100.00;101504.56;4952322;29;20038;-77
2021/01/04 06:10:09;;;;;;;29.00;13.10;;;;;;;1.50;100.00;101507.00;4952387;28;20023;-77
2021/01/04 06:12:40;;;;;;;29.08;12.80;;;;;;;1.47;100.00;101503.69;4952733;28;20106;-77
2021/01/04 06:15:09;;;;;;;34.20;14.65;;;;;;;1.53;100.00;101512.09;4967296;28;20114;-78
2021/01/04 06:17:43;;;;;;;27.45;13.15;;;;;;;1.52;100.00;101514.84;4953670;28;20123;-77
2021/01/04 06:20:41;;;;;;;30.08;14.48;;;;;;;1.53;100.00;101517.41;4955981;28;20027;-78
2021/01/04 06:23:16;;;;;;;30.70;14.65;;;;;;;1.54;100.00;101524.38;4956521;29;20473;-76
2021/01/04 06:25:42;;;;;;;27.30;12.90;;;;;;;1.56;100.00;101513.72;4956194;28;20396;-76
2021/01/04 06:28:08;;;;;;;34.20;14.85;;;;;;;1.58;100.00;101524.22;4956253;28;20110;-79
2021/01/04 06:30:38;;;;;;;31.27;14.80;;;;;;;1.54;100.00;101512.97;4955692;28;20059;-77
2021/01/04 06:33:10;;;;;;;31.98;15.07;;;;;;;1.58;100.00;101513.63;4956355;28;20035;-77
2021/01/04 06:35:36;;;;;;;34.45;14.90;;;;;;;1.58;100.00;101516.28;4956149;28;20039;-77
2021/01/04 06:38:23;;;;;;;37.15;16.08;;;;;;;1.61;100.00;101526.66;4955956;28;20106;-77
2021/01/04 06:40:49;;;;;;;32.65;14.73;;;;;;;1.63;100.00;101517.69;4955478;28;20066;-77
2021/01/04 06:43:26;;;;;;;33.92;14.80;;;;;;;1.63;100.00;101525.63;4955901;28;20036;-77
2021/01/04 06:46:16;;;;;;;32.20;15.25;;;;;;;1.58;100.00;101527.69;4955690;28;20037;-77
2021/01/04 06:48:48;;;;;;;35.25;15.10;;;;;;;1.60;100.00;101525.81;4956375;28;20039;-78
2021/01/04 06:51:51;;;;;;;35.30;15.77;;;;;;;1.63;100.00;101530.94;4956156;28;20417;-79
2021/01/04 06:54:35;;;;;;;41.30;16.42;;;;;;;1.66;100.00;101536.03;4956166;29;20030;-78
2021/01/04 06:57:54;;;;;;;38.58;15.95;;;;;;;1.64;100.00;101534.41;4955861;28;20043;-76
2021/01/04 07:00:20;;;;;;;39.15;16.25;;;;;;;1.61;100.00;101537.22;4955426;29;20058;-77
2021/01/04 07:03:23;;;;;;;35.95;16.45;;;;;;;1.64;100.00;101543.19;4955986;28;20461;-76
2021/01/04 07:06:01;;;;;;;33.17;15.10;;;;;;;1.65;100.00;101544.91;4943595;29;20039;-77
2021/01/04 07:09:02;;;;;;;34.22;15.40;;;;;;;1.67;100.00;101545.69;4955776;29;20117;-77
2021/01/04 07:11:35;;;;;;;34.15;16.40;;;;;;;1.64;100.00;101548.50;4955476;28;20050;-78
2021/01/04 07:14:30;;;;;;;33.75;14.07;;;;;;;1.64;100.00;101553.78;4955732;28;20590;-79
2021/01/04 07:17:14;;;;;;;38.65;16.40;;;;;;;1.60;100.00;101554.91;4954893;28;20035;-78
2021/01/04 07:19:57;;;;;;;36.75;16.08;;;;;;;1.62;100.00;101558.31;4954755;29;20031;-78
2021/01/04 07:22:31;;;;;;;33.42;14.88;;;;;;;1.65;100.00;101560.75;4955564;28;20031;-78
2021/01/04 07:25:07;;;;;;;36.65;16.23;;;;;;;1.58;100.00;101563.88;4954999;28;20479;-79
2021/01/04 07:27:46;;;;;;;35.70;16.02;;;;;;;1.62;100.00;101565.41;4954944;28;20031;-79
2021/01/04 07:30:24;;;;;;;33.42;16.58;;;;;;;1.68;100.00;101572.97;4953631;28;20437;-78
2021/01/04 07:33:03;;;;;;;33.72;15.40;;;;;;;1.67;100.00;101563.34;4955059;28;20067;-77
2021/01/04 07:35:32;;;;;;;38.60;17.38;;;;;;;1.60;100.00;101562.00;4954780;28;20023;-79
2021/01/04 07:38:08;;;;;;;35.90;16.77;;;;;;;1.63;100.00;101564.47;4954606;28;20034;-79
2021/01/04 07:40:55;;;;;;;37.40;16.65;;;;;;;1.64;100.00;101569.66;4954054;28;20050;-79
2021/01/04 07:44:04;;;;;;;34.58;16.13;;;;;;;1.66;100.00;101566.94;4955224;28;20110;-79
2021/01/04 07:46:44;;;;;;;33.50;16.13;;;;;;;1.63;100.00;101565.31;4944566;29;20037;-79
2021/01/04 07:49:28;;;;;;;34.97;16.23;;;;;;;1.65;100.00;101566.06;4954867;28;20036;-79
2021/01/04 07:52:20;;;;;;;34.20;15.23;;;;;;;1.68;100.00;101571.19;4954492;29;20039;-79
2021/01/04 07:55:12;;;;;;;32.22;15.10;;;;;;;1.67;100.00;101579.22;4954739;28;20382;-78
2021/01/04 07:57:48;;;;;;;35.58;16.05;;;;;;;1.71;100.00;101571.00;4955104;28;20031;-79
2021/01/04 08:00:40;;;;;;;34.53;16.70;;;;;;;1.67;100.00;101576.56;4954414;28;20031;-78
2021/01/04 08:03:32;;;;;;;39.22;17.42;;;;;;;1.68;100.00;101576.47;4954500;28;20031;-77
2021/01/04 08:06:36;;;;;;;37.97;16.55;;;;;;;1.68;100.00;101581.75;4953718;28;20066;-77
2021/01/04 08:09:05;;;;;;;37.08;16.38;;;;;;;1.68;100.00;101572.97;4954835;28;20089;-78
2021/01/04 08:11:46;;;;;;;37.72;17.05;;;;;;;1.68;100.00;101583.56;4956369;28;20038;-78
2021/01/04 08:14:30;;;;;;;39.38;17.45;;;;;;;1.67;100.00;101584.50;4958626;28;20055;-81
2021/01/04 08:17:02;;;;;;;38.20;17.48;;;;;;;1.66;100.00;101583.66;4956671;28;20497;-81
2021/01/04 08:19:30;;;;;;;37.05;17.27;;;;;;;1.69;100.00;101578.16;4971673;28;20036;-79
2021/01/04 08:22:10;;;;;;;40.10;17.98;;;;;;;1.74;100.00;101583.19;4957459;28;20035;-81
2021/01/04 08:24:46;;;;;;;38.38;15.95;;;;;;;1.74;100.00;101581.38;4950417;28;20682;-79
2021/01/04 08:27:24;;;;;;;38.72;17.58;;;;;;;1.73;100.00;101592.06;4966465;28;20377;-78
2021/01/04 08:30:00;;;;;;;41.10;18.15;;;;;;;1.71;100.00;101588.69;4952317;29;20043;-79
2021/01/04 08:32:44;;;;;;;39.08;16.90;;;;;;;1.73;100.00;101592.91;4952594;29;20501;-79
2021/01/04 08:35:28;;;;;;;39.30;17.02;;;;;;;1.72;100.00;101590.38;4952795;28;20043;-78
2021/01/04 08:37:58;;;;;;;36.92;16.67;;;;;;;1.75;100.00;101598.09;4953332;28;20101;-82
2021/01/04 08:40:28;;;;;;;38.92;17.42;;;;;;;1.70;100.00;101593.09;4953552;28;20039;-81
2021/01/04 08:43:04;;;;;;;39.13;18.05;;;;;;;1.68;100.00;101602.91;4968088;28;20157;-80
2021/01/04 08:45:45;;;;;;;33.38;16.15;;;;;;;1.72;100.00;101603.59;4953767;28;20039;-82
2021/01/04 08:48:20;;;;;;;38.45;18.08;;;;;;;1.69;100.00;101607.25;4953268;28;20067;-79
2021/01/04 08:50:58;;;;;;;;;;;;;;;1.74;100.00;101609.63;4967402;28;20038;-78
2021/01/04 08:53:24;;;;;;;36.13;16.48;;;;;;;1.73;100.00;101615.88;4967977;28;19910;-80
2021/01/04 08:55:52;;;;;;;35.63;17.17;;;;;;;1.66;100.00;101615.41;4953148;28;20070;-77
2021/01/04 08:58:21;;;;;;;36.22;17.10;;;;;;;1.68;100.00;101612.66;4966869;28;20046;-77
2021/01/04 09:01:05;;;;;;;39.97;17.90;;;;;;;1.72;100.00;101620.31;4953105;28;20035;-77
2021/01/04 09:03:34;;;;;;;37.25;17.08;;;;;;;1.72;100.00;101619.47;4967069;28;20031;-77
2021/01/04 09:06:13;;;;;;;36.80;17.17;;;;;;;1.69;100.00;101620.50;4952031;28;20034;-78
2021/01/04 09:08:48;;;;;;;40.45;16.98;;;;;;;1.63;100.00;101620.84;4952667;28;20074;-78
2021/01/04 09:11:15;;;;;;;38.30;17.00;;;;;;;1.63;100.00;101627.94;4952692;28;20059;-78
2021/01/04 09:13:42;;;;;;;39.42;17.95;;;;;;;1.62;100.00;101628.88;4953664;28;20497;-78
2021/01/04 09:16:11;;;;;;;39.83;19.05;;;;;;;1.61;100.00;101621.88;4952269;28;20035;-79
2021/01/04 09:18:48;;;;;;;41.65;18.75;;;;;;;1.51;100.00;101619.78;4950065;29;20042;-78
2021/01/04 09:21:38;;;;;;;44.80;18.83;;;;;;;1.52;100.00;101623.28;4950018;28;20031;-80
2021/01/04 09:24:21;;;;;;;41.85;18.98;;;;;;;1.55;100.00;101623.94;4952365;28;20062;-78
2021/01/04 09:26:57;;;;;;;40.20;19.25;;;;;;;1.58;100.00;101625.56;4939282;28;20043;-79
2021/01/04 09:29:25;;;;;;;39.10;17.08;;;;;;;1.60;100.00;101618.38;4968351;28;20035;-80
2021/01/04 09:32:00;;;;;;;40.80;19.33;;;;;;;1.61;100.00;101633.31;4952784;28;20090;-80
2021/01/04 09:34:29;;;;;;;42.92;18.92;;;;;;;1.60;100.00;101628.94;4953140;28;20035;-81
2021/01/04 09:37:04;;;;;;;40.25;18.92;;;;;;;1.60;100.00;101628.09;4966948;28;20041;-78
2021/01/04 09:39:32;;;;;;;43.92;19.55;;;;;;;1.58;100.00;101627.34;4951777;28;20031;-79
2021/01/04 09:42:03;;;;;;;44.63;19.23;;;;;;;1.61;100.00;101637.75;4951325;29;20043;-78
2021/01/04 09:44:29;;;;;;;42.75;18.70;;;;;;;1.57;100.00;101633.59;4951936;28;20545;-79
2021/01/04 09:47:03;;;;;;;43.00;19.77;;;;;;;1.63;100.00;101639.38;4951697;28;20386;-78
2021/01/04 09:49:35;;;;;;;42.93;19.77;;;;;;;1.67;100.00;101638.25;4966505;28;20082;-82
2021/01/04 09:52:08;;;;;;;40.95;19.10;;;;;;;1.73;100.00;101643.19;4966425;28;20040;-81
2021/01/04 09:54:40;;;;;;;40.70;18.55;;;;;;;1.72;100.00;101641.47;4955512;29;20081;-78
2021/01/04 09:57:08;;;;;;;44.17;19.88;;;;;;;1.73;100.00;101642.34;4955531;28;20047;-79
2021/01/04 09:59:40;;;;;;;46.17;20.83;;;;;;;1.75;100.00;101657.16;4955035;28;20035;-82
2021/01/04 10:02:08;;;;;;;39.08;17.80;;;;;;;1.80;100.00;101651.59;4954839;28;20118;-82
2021/01/04 10:04:38;;;;;;;38.28;18.48;;;;;;;1.84;100.00;101655.78;4955694;28;20089;-77
2021/01/04 10:07:08;;;;;;;41.47;19.15;;;;;;;1.92;100.00;101650.91;4955251;28;20516;-78
2021/01/04 10:09:39;;;;;;;41.00;19.08;;;;;;;1.91;100.00;101654.50;4956254;28;20035;-80
2021/01/04 10:12:06;;;;;;;42.20;18.35;;;;;;;1.89;100.00;101648.41;4943153;29;20035;-82
2021/01/04 10:14:32;;;;;;;42.67;19.25;;;;;;;1.94;100.00;101654.28;4970309;28;20408;-77
2021/01/04 10:17:00;;;;;;;39.30;19.05;;;;;;;1.97;100.00;101647.97;4957469;28;20023;-78
2021/01/04 10:19:40;;;;;;;38.42;17.38;;;;;;;1.92;100.00;101653.53;4959423;28;20042;-81
2021/01/04 10:22:13;;;;;;;40.42;19.45;;;;;;;1.96;100.00;101654.22;4954367;28;20117;-79
2021/01/04 10:24:52;;;;;;;39.38;18.75;;;;;;;2.08;100.00;101656.13;4955048;28;20054;-80
2021/01/04 10:27:20;;;;;;;40.15;19.10;;;;;;;2.10;100.00;101653.38;4955390;28;20432;-79
2021/01/04 10:29:52;;;;;;;41.13;18.45;;;;;;;2.13;100.00;101653.19;4954615;28;20038;-79
2021/01/04 10:32:20;;;;;;;39.75;19.55;;;;;;;2.06;100.00;101650.94;4953132;28;20042;-81
2021/01/04 10:34:48;;;;;;;34.10;17.38;;;;;;;2.13;100.00;101645.25;4954556;28;20085;-80
2021/01/04 10:37:38;;;;;;;35.00;16.70;;;;;;;2.15;100.00;101638.06;4953836;28;20507;-77
2021/01/04 10:40:08;;;;;;;34.13;17.23;;;;;;;2.18;100.00;101646.69;4950288;28;20050;-79
2021/01/04 10:42:37;;;;;;;39.10;17.65;;;;;;;2.21;100.00;101648.28;4953677;29;20106;-79
2021/01/04 10:45:08;;;;;;;35.95;17.13;;;;;;;2.18;100.00;101638.75;4955729;28;20486;-79
2021/01/04 10:47:48;;;;;;;43.03;19.42;;;;;;;2.13;100.00;101648.75;4951741;28;20024;-81
2021/01/04 10:50:31;;;;;;;35.95;16.75;;;;;;;2.17;100.00;101639.69;4951522;28;20028;-77
2021/01/04 10:53:01;;;;;;;39.53;18.02;;;;;;;2.14;100.00;101647.81;4952501;28;20055;-78
2021/01/04 10:55:28;;;;;;;34.50;16.80;;;;;;;2.18;100.00;101646.69;4951464;28;20058;-80
2021/01/04 10:58:05;;;;;;;40.10;17.80;;;;;;;2.19;100.00;101639.59;4952654;28;20039;-78
2021/01/04 11:00:34;;;;;;;36.13;17.02;;;;;;;2.16;100.00;101634.47;4952943;28;20083;-77
2021/01/04 11:03:11;;;;;;;40.05;18.17;;;;;;;2.15;100.00;101628.31;4967151;28;20406;-78
2021/01/04 11:05:40;;;;;;;37.20;17.40;;;;;;;2.19;100.00;101627.19;4940766;28;20031;-78
2021/01/04 11:08:25;;;;;;;37.45;18.23;;;;;;;2.16;100.00;101624.75;4967807;28;20050;-76
2021/01/04 11:10:54;;;;;;;40.05;17.08;;;;;;;2.19;100.00;101621.06;4963098;28;20035;-78
2021/01/04 11:13:30;;;;;;;38.47;17.27;;;;;;;2.17;100.00;101623.81;4971982;28;20125;-76
2021/01/04 11:16:12;;;;;;;40.55;18.10;;;;;;;2.13;100.00;101619.63;4961680;28;20028;-79
2021/01/04 11:18:46;;;;;;;38.05;17.70;;;;;;;2.16;100.00;101616.81;4952673;28;20050;-77
2021/01/04 11:21:12;;;;;;;37.70;17.33;;;;;;;2.20;100.00;101617.47;4952141;29;20356;-77
2021/01/04 11:23:38;;;;;;;40.22;17.73;;;;;;;2.19;100.00;101613.09;4953168;28;20034;-79
2021/01/04 11:26:07;;;;;;;38.40;17.08;;;;;;;2.20;100.00;101610.34;4952820;29;20505;-78
2021/01/04 11:28:32;;;;;;;33.72;15.77;;;;;;;2.22;100.00;101605.84;4952199;28;20057;-78
2021/01/04 11:30:58;;;;;;;37.67;17.45;;;;;;;2.21;100.00;101609.44;4967920;28;20508;-78
2021/01/04 11:33:26;;;;;;;35.30;18.00;;;;;;;2.20;100.00;101613.00;4953013;28;20046;-79
2021/01/04 11:35:53;;;;;;;33.28;16.75;;;;;;;2.22;100.00;101611.13;4953244;28;20039;-78
2021/01/04 11:38:19;;;;;;;33.55;16.55;;;;;;;2.20;100.00;101598.91;4952200;28;20031;-78
2021/01/04 11:40:44;;;;;;;31.35;16.75;;;;;;;2.24;100.00;101611.88;4952251;28;20138;-77
2021/01/04 11:43:10;;;;;;;32.35;14.95;;;;;;;2.21;100.00;101608.56;4952615;28;20039;-77
2021/01/04 11:45:35;;;;;;;30.52;15.30;;;;;;;2.21;100.00;101596.22;4952160;28;20057;-79
2021/01/04 11:48:01;;;;;;;30.83;15.75;;;;;;;2.21;100.00;101590.91;4952486;28;20027;-78